Time;durP1;ratioP1;P1;durP2;ratioP2;P2;SDS_P1;SDS_P2;PMS_P1;PMS_P2;Temp;Humidity;BMP_temperature;BMP_pressure;BME280_temperature;BME280_humidity;BME280_pressure;Samples;Min_cycle;Max_cycle;Signal;HPM_P1;HPM_P2
2024/02/09 00:02:13;;;;;;;14.05;6.75;;;;;;;;;;5042295;28;20025;-78
2024/02/09 00:04:40;;;;;;;13.77;5.72;;;;;;;;;;5044392;28;20112;-78
2024/02/09 00:07:06;;;;;;;17.83;6.28;;;;;;;;;;5034126;28;20032;-78
2024/02/09 00:09:31;;;;;;;17.17;6.50;;;;;;;;;;5049918;28;20388;-78
2024/02/09 00:11:56;;;;;;;17.42;6.53;;;;;;;;;;5041797;28;20070;-78
2024/02/09 00:14:22;;;;;;;14.80;5.80;;;;;;;;;;5041822;28;20415;-78
2024/02/09 00:16:47;;;;;;;13.05;5.45;;;;;;;;;;5053080;28;20033;-78
2024/02/09 00:19:13;;;;;;;15.38;6.10;;;;;;;;;;5043171;28;20358;-78
2024/02/09 00:21:39;;;;;;;16.30;5.80;;;;;;;;;;5045895;28;20393;-78
2024/02/09 00:24:06;;;;;;;14.98;5.32;;;;;;;;;;5053974;28;20090;-78
2024/02/09 00:26:32;;;;;;;14.68;5.63;;;;;;;;;;5038707;28;20059;-78
2024/02/09 00:29:00;;;;;;;13.68;5.40;;;;;;;;;;5044410;28;20025;-78
2024/02/09 00:31:26;;;;;;;14.05;6.07;;;;;;;;;;5048082;28;20461;-78
2024/02/09 00:33:54;;;;;;;13.95;5.68;;;;;;;;;;5053128;28;20100;-78
2024/02/09 00:36:22;;;;;;;14.80;5.78;;;;;;;;;;5041373;28;20030;-78
2024/02/09 00:38:47;;;;;;;15.23;6.20;;;;;;;;;;5045816;28;20019;-78
2024/02/09 00:41:17;;;;;;;14.48;5.95;;;;;;;;;;5042835;28;20694;-78
2024/02/09 00:43:46;;;;;;;11.68;5.28;;;;;;;;;;5046133;28;20029;-78
2024/02/09 00:46:15;;;;;;;15.50;5.28;;;;;;;;;;5050169;28;20029;-78
2024/02/09 00:48:40;;;;;;;19.48;5.38;;;;;;;;;;5044390;28;20029;-78
2024/02/09 00:51:08;;;;;;;13.13;5.93;;;;;;;;;;5052264;28;20373;-78
2024/02/09 00:53:33;;;;;;;16.02;5.68;;;;;;;;;;5044997;28;20021;-78
2024/02/09 00:55:59;;;;;;;16.23;5.70;;;;;;;;;;5050429;28;20028;-78
2024/02/09 00:58:24;;;;;;;9.23;4.93;;;;;;;;;;5051282;28;20388;-78
2024/02/09 01:00:50;;;;;;;16.05;5.80;;;;;;;;;;5043022;28;20078;-78
2024/02/09 01:03:15;;;;;;;13.95;5.13;;;;;;;;;;5053989;28;20396;-78
2024/02/09 01:05:42;;;;;;;12.02;4.90;;;;;;;;;;5039320;28;20040;-79
2024/02/09 01:08:08;;;;;;;11.93;4.88;;;;;;;;;;5045233;28;20021;-79
2024/02/09 01:10:34;;;;;;;14.10;5.30;;;;;;;;;;5046202;28;20028;-79
2024/02/09 02:46:01;;;;;;;15.48;4.20;;;;;;;;;;5042672;28;20029;-90
2024/02/09 03:04:52;;;;;;;11.27;4.55;;;;;;;;;;5048030;28;20040;-91
2024/02/09 03:07:17;;;;;;;12.23;4.88;;;;;;;;;;5028961;28;20024;-92
2024/02/09 03:09:43;;;;;;;12.23;4.60;;;;;;;;;;5036944;28;20036;-92
2024/02/09 03:12:13;;;;;;;12.48;4.10;;;;;;;;;;5038536;28;20036;-92
2024/02/09 03:14:39;;;;;;;11.15;3.97;;;;;;;;;;5027783;28;20069;-79
2024/02/09 03:17:05;;;;;;;11.43;3.83;;;;;;;;;;5035269;28;20028;-92
2024/02/09 03:19:30;;;;;;;11.95;4.40;;;;;;;;;;5026883;28;20029;-93
2024/02/09 03:21:56;;;;;;;9.73;4.00;;;;;;;;;;5035323;28;20048;-90
2024/02/09 03:24:21;;;;;;;15.32;4.15;;;;;;;;;;5044340;28;20025;-91
2024/02/09 03:26:47;;;;;;;13.65;4.30;;;;;;;;;;5028339;28;20044;-90
2024/02/09 03:29:12;;;;;;;9.60;4.25;;;;;;;;;;5030416;28;20464;-93
2024/02/09 03:31:37;;;;;;;11.07;3.40;;;;;;;;;;5040726;28;20450;-92
2024/02/09 03:34:04;;;;;;;13.10;3.70;;;;;;;;;;5042549;28;20036;-92
2024/02/09 03:36:33;;;;;;;11.82;3.90;;;;;;;;;;5027455;28;20536;-90
2024/02/09 03:39:01;;;;;;;10.50;3.53;;;;;;;;;;5026398;28;20162;-90
2024/02/09 03:41:30;;;;;;;9.75;3.50;;;;;;;;;;5041904;28;20029;-90
2024/02/09 03:44:03;;;;;;;10.45;3.55;;;;;;;;;;5027426;28;20079;-90
2024/02/09 03:46:31;;;;;;;12.05;4.05;;;;;;;;;;5046429;28;20032;-90
2024/02/09 03:48:57;;;;;;;8.70;3.88;;;;;;;;;;5032381;28;20032;-90
2024/02/09 03:51:25;;;;;;;11.75;3.45;;;;;;;;;;5036464;28;20115;-90
2024/02/09 03:53:50;;;;;;;9.93;3.90;;;;;;;;;;5038534;28;20029;-92
2024/02/09 03:56:16;;;;;;;9.82;3.20;;;;;;;;;;5023135;28;20074;-91
2024/02/09 03:58:45;;;;;;;10.55;4.13;;;;;;;;;;5022040;28;20025;-92
2024/02/09 04:01:10;;;;;;;9.27;3.17;;;;;;;;;;5033978;28;20044;-90
2024/02/09 04:03:36;;;;;;;10.73;3.55;;;;;;;;;;5033995;28;20025;-90
2024/02/09 04:06:02;;;;;;;8.57;3.45;;;;;;;;;;5039187;28;20040;-93
2024/02/09 04:08:28;;;;;;;9.27;3.28;;;;;;;;;;5027443;28;20030;-93
2024/02/09 04:10:53;;;;;;;9.10;3.67;;;;;;;;;;5030766;28;20017;-91
2024/02/09 04:13:19;;;;;;;12.80;3.65;;;;;;;;;;5038306;28;20403;-92
2024/02/09 04:15:46;;;;;;;7.53;3.00;;;;;;;;;;5037022;28;20079;-90
2024/02/09 04:18:13;;;;;;;8.02;3.40;;;;;;;;;;5041434;28;20116;-89
2024/02/09 04:20:38;;;;;;;8.05;3.22;;;;;;;;;;5024979;28;20024;-91
2024/02/09 04:23:04;;;;;;;7.80;3.42;;;;;;;;;;5039830;28;20036;-93
2024/02/09 04:25:30;;;;;;;7.40;3.30;;;;;;;;;;5026682;28;20079;-92
2024/02/09 04:27:56;;;;;;;10.13;3.47;;;;;;;;;;5028870;28;20079;-90
2024/02/09 04:30:21;;;;;;;5.55;3.28;;;;;;;;;;5046436;28;20025;-93
2024/02/09 04:32:47;;;;;;;7.75;3.15;;;;;;;;;;5037768;28;20098;-93
2024/02/09 04:35:17;;;;;;;8.25;2.88;;;;;;;;;;5028033;28;20021;-93
2024/02/09 04:37:43;;;;;;;6.88;2.78;;;;;;;;;;5034449;28;20029;-93
2024/02/09 04:40:09;;;;;;;6.00;2.95;;;;;;;;;;5048883;28;20022;-90
2024/02/09 04:42:34;;;;;;;7.25;3.10;;;;;;;;;;5030891;28;20409;-92
2024/02/09 04:45:00;;;;;;;5.45;2.80;;;;;;;;;;5036512;28;20033;-90
2024/02/09 04:47:25;;;;;;;4.93;2.75;;;;;;;;;;5042295;28;20120;-90
2024/02/09 04:49:52;;;;;;;6.43;3.10;;;;;;;;;;5031799;28;20102;-91
2024/02/09 04:52:18;;;;;;;6.47;2.97;;;;;;;;;;5025853;28;20051;-91
2024/02/09 04:54:43;;;;;;;7.47;2.90;;;;;;;;;;5033213;28;20027;-91
2024/02/09 04:57:11;;;;;;;8.57;3.25;;;;;;;;;;5033198;28;20039;-91
2024/02/09 04:59:37;;;;;;;6.80;3.03;;;;;;;;;;5032589;28;20033;-90
2024/02/09 05:02:02;;;;;;;6.53;2.85;;;;;;;;;;5028001;28;20031;-91
2024/02/09 05:04:27;;;;;;;4.68;2.55;;;;;;;;;;5027715;28;20116;-90
2024/02/09 05:06:53;;;;;;;7.20;3.25;;;;;;;;;;5025498;28;20020;-90
2024/02/09 05:09:23;;;;;;;8.75;3.00;;;;;;;;;;5033298;28;20045;-92
2024/02/09 05:11:49;;;;;;;8.90;2.90;;;;;;;;;;5025830;28;20397;-92
2024/02/09 05:14:15;;;;;;;5.35;2.58;;;;;;;;;;5023475;28;20032;-91
2024/02/09 05:16:41;;;;;;;6.50;2.80;;;;;;;;;;5027854;28;20029;-91
2024/02/09 05:19:10;;;;;;;8.63;2.65;;;;;;;;;;5021945;28;20060;-90
2024/02/09 05:21:37;;;;;;;10.27;3.28;;;;;;;;;;5022110;28;20028;-90
2024/02/09 05:24:03;;;;;;;6.00;2.63;;;;;;;;;;5038101;28;20097;-91
2024/02/09 05:26:30;;;;;;;8.10;3.05;;;;;;;;;;5027343;28;20120;-89
2024/02/09 05:28:55;;;;;;;8.30;2.92;;;;;;;;;;5027378;28;20033;-91
2024/02/09 05:31:25;;;;;;;5.72;2.60;;;;;;;;;;5046921;28;20077;-89
2024/02/09 05:33:51;;;;;;;5.47;2.83;;;;;;;;;;5024452;28;20033;-92
2024/02/09 05:36:23;;;;;;;6.65;3.10;;;;;;;;;;5034438;28;20404;-80
2024/02/09 05:38:49;;;;;;;6.90;2.70;;;;;;;;;;5045848;28;20021;-79
2024/02/09 05:41:18;;;;;;;6.85;2.92;;;;;;;;;;5043069;28;20017;-79
2024/02/09 05:43:47;;;;;;;5.82;3.03;;;;;;;;;;5040752;28;20029;-79
2024/02/09 05:46:13;;;;;;;6.05;2.63;;;;;;;;;;5043062;28;20029;-80
2024/02/09 05:48:38;;;;;;;6.68;2.88;;;;;;;;;;5040238;28;20049;-80
2024/02/09 05:51:10;;;;;;;7.88;2.92;;;;;;;;;;5043270;28;20056;-80
2024/02/09 05:53:36;;;;;;;5.95;3.00;;;;;;;;;;5047201;28;20092;-80
2024/02/09 05:56:01;;;;;;;5.25;2.47;;;;;;;;;;5040848;28;20029;-79
2024/02/09 05:58:27;;;;;;;5.38;2.40;;;;;;;;;;5047282;28;20033;-79
2024/02/09 06:00:52;;;;;;;6.15;2.53;;;;;;;;;;5040635;28;20025;-79
2024/02/09 06:03:19;;;;;;;5.75;2.72;;;;;;;;;;5043161;28;20112;-79
2024/02/09 06:05:49;;;;;;;7.70;2.83;;;;;;;;;;5042852;28;20396;-80
2024/02/09 06:08:14;;;;;;;6.00;2.88;;;;;;;;;;5047970;28;20109;-80
2024/02/09 06:10:40;;;;;;;8.15;3.20;;;;;;;;;;5045889;28;20112;-80
2024/02/09 06:13:05;;;;;;;4.88;2.60;;;;;;;;;;5042264;28;20619;-80
2024/02/09 06:15:32;;;;;;;8.40;2.97;;;;;;;;;;5049629;28;20919;-80
2024/02/09 06:18:02;;;;;;;7.43;2.47;;;;;;;;;;5041818;28;20029;-79
2024/02/09 06:20:27;;;;;;;6.78;3.00;;;;;;;;;;5044470;28;20028;-80
2024/02/09 06:22:54;;;;;;;7.93;2.85;;;;;;;;;;5040957;28;20022;-79
2024/02/09 06:25:20;;;;;;;8.73;3.10;;;;;;;;;;5045421;28;20033;-79
2024/02/09 06:27:48;;;;;;;6.95;2.80;;;;;;;;;;5047621;28;20535;-79
2024/02/09 06:30:14;;;;;;;5.75;2.78;;;;;;;;;;5048481;28;20026;-80
2024/02/09 06:32:40;;;;;;;5.55;2.55;;;;;;;;;;5040547;28;20029;-79
2024/02/09 06:35:06;;;;;;;7.60;2.80;;;;;;;;;;5041832;28;20021;-79
2024/02/09 06:37:31;;;;;;;5.28;2.58;;;;;;;;;;5028873;28;20035;-80
2024/02/09 06:39:59;;;;;;;5.35;2.20;;;;;;;;;;5040290;28;20020;-79
2024/02/09 06:42:25;;;;;;;6.18;2.55;;;;;;;;;;5045228;28;20029;-79
2024/02/09 06:44:52;;;;;;;7.20;2.58;;;;;;;;;;5044116;28;20029;-79
2024/02/09 06:47:17;;;;;;;7.15;2.60;;;;;;;;;;5047130;28;20033;-89
2024/02/09 06:49:44;;;;;;;5.07;2.63;;;;;;;;;;5026731;28;20032;-91
2024/02/09 06:52:11;;;;;;;6.88;2.38;;;;;;;;;;5028376;28;20028;-91
2024/02/09 06:54:37;;;;;;;5.72;2.38;;;;;;;;;;5052151;28;20025;-90
2024/02/09 06:57:02;;;;;;;5.60;2.40;;;;;;;;;;5033494;28;21742;-91
2024/02/09 06:59:28;;;;;;;4.85;2.25;;;;;;;;;;5030139;28;20029;-89
2024/02/09 07:01:55;;;;;;;5.35;2.35;;;;;;;;;;5034980;28;20036;-92
2024/02/09 07:04:22;;;;;;;7.88;2.67;;;;;;;;;;5023262;28;20665;-90
2024/02/09 07:06:51;;;;;;;7.22;2.83;;;;;;;;;;5021511;28;20060;-90
2024/02/09 07:09:21;;;;;;;7.55;2.33;;;;;;;;;;5026201;28;20108;-90
2024/02/09 07:11:47;;;;;;;11.60;2.85;;;;;;;;;;5027807;28;20021;-91
2024/02/09 07:14:18;;;;;;;7.53;2.22;;;;;;;;;;5042049;28;20029;-89
2024/02/09 07:16:50;;;;;;;5.80;2.55;;;;;;;;;;5033075;28;20070;-91
2024/02/09 07:19:15;;;;;;;7.60;2.70;;;;;;;;;;5029965;28;20018;-92
2024/02/09 07:21:41;;;;;;;7.22;2.80;;;;;;;;;;5018230;28;20512;-90
2024/02/09 07:24:08;;;;;;;10.90;2.30;;;;;;;;;;5027512;28;20124;-90
2024/02/09 07:26:35;;;;;;;7.10;2.15;;;;;;;;;;5032081;28;20492;-92
2024/02/09 07:29:01;;;;;;;6.82;2.38;;;;;;;;;;5031093;28;20548;-91
2024/02/09 07:31:27;;;;;;;7.32;2.58;;;;;;;;;;5032010;28;20408;-91
2024/02/09 07:33:53;;;;;;;6.20;2.60;;;;;;;;;;5052697;28;20025;-92
2024/02/09 07:36:20;;;;;;;7.40;2.80;;;;;;;;;;5045080;28;20489;-90
2024/02/09 07:38:46;;;;;;;7.88;2.95;;;;;;;;;;5028489;28;20029;-90
2024/02/09 07:41:12;;;;;;;5.72;2.50;;;;;;;;;;5046517;28;20428;-90
2024/02/09 07:43:38;;;;;;;7.05;2.55;;;;;;;;;;5028609;28;20437;-89
2024/02/09 07:46:04;;;;;;;7.80;2.50;;;;;;;;;;5031068;28;20116;-90
2024/02/09 07:48:30;;;;;;;6.22;2.67;;;;;;;;;;5047746;28;20104;-91
2024/02/09 07:50:56;;;;;;;9.13;2.80;;;;;;;;;;5029907;28;20120;-90
2024/02/09 07:53:22;;;;;;;7.85;3.10;;;;;;;;;;5047306;28;20017;-88
2024/02/09 07:55:47;;;;;;;9.38;2.90;;;;;;;;;;5031043;28;20025;-79
2024/02/09 07:58:16;;;;;;;8.80;2.72;;;;;;;;;;5045551;28;20029;-78
2024/02/09 08:00:43;;;;;;;6.90;2.50;;;;;;;;;;5040166;28;20481;-79
2024/02/09 08:03:10;;;;;;;5.70;2.60;;;;;;;;;;5046463;28;20028;-79
2024/02/09 08:05:38;;;;;;;6.40;2.47;;;;;;;;;;5045130;28;20107;-79
2024/02/09 08:08:04;;;;;;;8.95;3.00;;;;;;;;;;5052312;28;20024;-79
2024/02/09 08:10:32;;;;;;;7.03;3.10;;;;;;;;;;5049491;28;20366;-79
2024/02/09 08:12:58;;;;;;;10.60;2.85;;;;;;;;;;5041492;28;20028;-79
2024/02/09 08:15:24;;;;;;;7.45;3.20;;;;;;;;;;5044956;28;20104;-78
2024/02/09 08:17:52;;;;;;;6.50;2.90;;;;;;;;;;5045048;28;20063;-79
2024/02/09 08:20:21;;;;;;;6.72;2.60;;;;;;;;;;5055823;28;20100;-79
2024/02/09 08:22:49;;;;;;;8.32;2.85;;;;;;;;;;5049807;28;20044;-79
2024/02/09 08:25:15;;;;;;;9.27;3.15;;;;;;;;;;5050113;28;20084;-78
2024/02/09 08:27:42;;;;;;;7.75;3.33;;;;;;;;;;5049969;28;20033;-78
2024/02/09 08:30:09;;;;;;;5.80;2.88;;;;;;;;;;5051256;28;20036;-78
2024/02/09 08:32:36;;;;;;;6.05;2.67;;;;;;;;;;5046592;28;20024;-79
2024/02/09 08:35:03;;;;;;;7.15;3.05;;;;;;;;;;5041164;28;20036;-79
2024/02/09 08:37:30;;;;;;;6.43;2.50;;;;;;;;;;5022287;28;20087;-80
2024/02/09 08:39:57;;;;;;;4.80;2.42;;;;;;;;;;5033187;28;20054;-79
2024/02/09 08:42:23;;;;;;;5.22;2.47;;;;;;;;;;5028737;28;20032;-79
2024/02/09 08:44:49;;;;;;;8.52;3.00;;;;;;;;;;5041016;28;20029;-79
2024/02/09 08:47:16;;;;;;;8.32;2.80;;;;;;;;;;5025122;28;20052;-79
2024/02/09 08:49:42;;;;;;;8.13;3.03;;;;;;;;;;5039228;28;20041;-79
2024/02/09 08:52:08;;;;;;;6.03;2.80;;;;;;;;;;5043031;28;20116;-79
2024/02/09 08:54:33;;;;;;;14.27;3.42;;;;;;;;;;5038046;28;20461;-79
2024/02/09 08:56:59;;;;;;;7.55;2.75;;;;;;;;;;5039945;28;20048;-79
2024/02/09 08:59:26;;;;;;;11.85;3.42;;;;;;;;;;5045557;28;20049;-79
2024/02/09 09:01:52;;;;;;;6.80;2.90;;;;;;;;;;5039545;28;20556;-79
2024/02/09 09:04:21;;;;;;;9.82;2.85;;;;;;;;;;5037512;28;20122;-79
2024/02/09 09:06:46;;;;;;;8.82;2.90;;;;;;;;;;5044440;28;20049;-90
2024/02/09 09:09:14;;;;;;;6.00;2.75;;;;;;;;;;5025910;28;20033;-90
2024/02/09 09:11:41;;;;;;;6.45;2.70;;;;;;;;;;5036168;28;20036;-91
2024/02/09 09:14:08;;;;;;;7.20;2.90;;;;;;;;;;5027111;28;20025;-89
2024/02/09 09:16:33;;;;;;;6.25;2.80;;;;;;;;;;5019761;28;20119;-90
2024/02/09 09:19:04;;;;;;;7.57;2.80;;;;;;;;;;5033484;28;20760;-90
2024/02/09 09:21:30;;;;;;;8.30;2.75;;;;;;;;;;5042972;28;20552;-90
2024/02/09 09:23:55;;;;;;;7.72;3.17;;;;;;;;;;5052009;28;20174;-91
2024/02/09 09:26:21;;;;;;;7.80;3.03;;;;;;;;;;5019865;28;20029;-90
2024/02/09 09:28:48;;;;;;;6.88;2.65;;;;;;;;;;5033982;28;20374;-89
2024/02/09 09:31:14;;;;;;;6.38;3.08;;;;;;;;;;5021172;28;20120;-89
2024/02/09 09:33:39;;;;;;;6.85;3.05;;;;;;;;;;5028632;28;20596;-89
2024/02/09 09:36:05;;;;;;;6.90;3.00;;;;;;;;;;5050393;28;20511;-89
2024/02/09 09:38:30;;;;;;;8.43;3.17;;;;;;;;;;5030988;28;20025;-89
2024/02/09 09:40:56;;;;;;;7.10;2.92;;;;;;;;;;5033984;28;20432;-89
2024/02/09 09:43:22;;;;;;;12.45;3.00;;;;;;;;;;5031021;28;20112;-89
2024/02/09 09:45:57;;;;;;;9.13;3.40;;;;;;;;;;5045514;28;20071;-89
2024/02/09 09:48:26;;;;;;;8.93;3.20;;;;;;;;;;5051876;28;20024;-89
2024/02/09 09:50:53;;;;;;;8.65;2.95;;;;;;;;;;5035498;28;20030;-90
2024/02/09 09:53:25;;;;;;;6.65;2.83;;;;;;;;;;5026061;28;20070;-90
2024/02/09 09:55:53;;;;;;;9.20;2.95;;;;;;;;;;5043175;28;20029;-90
2024/02/09 09:58:20;;;;;;;6.88;2.78;;;;;;;;;;5026364;28;20477;-89
2024/02/09 10:00:46;;;;;;;4.72;2.70;;;;;;;;;;5040688;28;20168;-89
2024/02/09 10:03:13;;;;;;;5.60;2.67;;;;;;;;;;5034669;28;20034;-91
2024/02/09 10:05:38;;;;;;;9.63;3.67;;;;;;;;;;5039558;28;20025;-88
2024/02/09 10:08:04;;;;;;;9.20;3.17;;;;;;;;;;5044503;28;20032;-90
2024/02/09 10:10:30;;;;;;;7.10;2.80;;;;;;;;;;5030166;28;20393;-89
2024/02/09 10:13:11;;;;;;;6.90;2.90;;;;;;;;;;5055240;28;20749;-90
2024/02/09 10:15:41;;;;;;;9.88;2.80;;;;;;;;;;5049067;28;20048;-79
2024/02/09 10:18:11;;;;;;;9.68;3.20;;;;;;;;;;5035519;28;20091;-79
2024/02/09 10:20:46;;;;;;;4.72;2.85;;;;;;;;;;5035951;28;20131;-79
2024/02/09 10:23:19;;;;;;;6.53;2.83;;;;;;;;;;5044650;28;20032;-79
2024/02/09 10:25:47;;;;;;;7.57;2.65;;;;;;;;;;5028284;28;20028;-79
2024/02/09 10:28:13;;;;;;;7.70;2.72;;;;;;;;;;5041731;28;20090;-79
2024/02/09 10:30:39;;;;;;;8.25;2.78;;;;;;;;;;5040078;28;20033;-79
2024/02/09 10:33:06;;;;;;;4.85;2.80;;;;;;;;;;5022494;28;20037;-79
2024/02/09 10:35:36;;;;;;;7.85;2.92;;;;;;;;;;5037660;28;20418;-80
2024/02/09 10:38:03;;;;;;;4.90;2.45;;;;;;;;;;5031328;28;20022;-80
2024/02/09 10:40:29;;;;;;;8.80;2.70;;;;;;;;;;5040843;28;20030;-81
2024/02/09 10:42:59;;;;;;;9.50;3.00;;;;;;;;;;5036309;28;20040;-80
2024/02/09 10:45:26;;;;;;;6.20;2.63;;;;;;;;;;5037830;28;20099;-80
2024/02/09 10:47:55;;;;;;;7.63;2.60;;;;;;;;;;5042307;28;20029;-80
2024/02/09 10:50:21;;;;;;;11.57;3.10;;;;;;;;;;5039056;28;20036;-80
2024/02/09 10:52:49;;;;;;;6.45;2.67;;;;;;;;;;5039412;28;20499;-80
2024/02/09 10:55:24;;;;;;;5.60;2.72;;;;;;;;;;5047698;28;20558;-80
2024/02/09 10:57:50;;;;;;;7.70;3.17;;;;;;;;;;5034552;28;20029;-80
2024/02/09 11:00:17;;;;;;;8.25;2.80;;;;;;;;;;5034788;28;20041;-80
2024/02/09 11:02:45;;;;;;;7.43;2.88;;;;;;;;;;5037021;28;20136;-80
2024/02/09 11:05:14;;;;;;;8.50;3.35;;;;;;;;;;5035842;28;20108;-80
2024/02/09 11:07:49;;;;;;;7.32;2.83;;;;;;;;;;5035738;28;20092;-80
2024/02/09 11:10:16;;;;;;;13.13;3.35;;;;;;;;;;5030156;28;20048;-81
2024/02/09 11:12:42;;;;;;;8.90;3.08;;;;;;;;;;5041513;28;20056;-80
2024/02/09 11:15:15;;;;;;;5.57;2.80;;;;;;;;;;5032144;28;20584;-81
2024/02/09 11:17:47;;;;;;;5.45;2.78;;;;;;;;;;5037584;28;20032;-81
2024/02/09 11:20:14;;;;;;;5.97;2.70;;;;;;;;;;5037293;28;20032;-80
2024/02/09 11:22:47;;;;;;;9.93;2.67;;;;;;;;;;5052784;28;20029;-80
2024/02/09 11:25:18;;;;;;;9.38;2.95;;;;;;;;;;5037826;28;20492;-91
2024/02/09 11:27:50;;;;;;;10.13;2.90;;;;;;;;;;5052130;28;20035;-91
2024/02/09 11:30:16;;;;;;;7.15;2.83;;;;;;;;;;5049166;28;20040;-90
2024/02/09 11:32:45;;;;;;;9.45;3.25;;;;;;;;;;5037039;28;20029;-91
2024/02/09 11:35:10;;;;;;;9.07;2.90;;;;;;;;;;5050252;28;20112;-91
2024/02/09 11:37:36;;;;;;;4.20;2.72;;;;;;;;;;5023654;28;20115;-90
2024/02/09 11:40:01;;;;;;;8.55;3.08;;;;;;;;;;5033549;28;20053;-92
2024/02/09 11:42:28;;;;;;;8.00;3.05;;;;;;;;;;5028178;28;20460;-90
2024/02/09 11:44:53;;;;;;;6.28;2.25;;;;;;;;;;5039936;28;20048;-91
2024/02/09 11:47:19;;;;;;;7.25;3.15;;;;;;;;;;5047912;28;20029;-91
2024/02/09 11:49:46;;;;;;;7.30;2.50;;;;;;;;;;5046722;28;20099;-90
2024/02/09 11:52:12;;;;;;;9.75;2.92;;;;;;;;;;5023009;28;20041;-91
2024/02/09 11:54:38;;;;;;;6.32;2.60;;;;;;;;;;5032918;28;20101;-90
2024/02/09 11:57:04;;;;;;;8.77;2.75;;;;;;;;;;5026582;28;20032;-89
2024/02/09 11:59:31;;;;;;;6.85;2.67;;;;;;;;;;5020116;28;20127;-90
2024/02/09 12:01:57;;;;;;;7.43;2.53;;;;;;;;;;5026387;28;20028;-90
2024/02/09 12:04:23;;;;;;;6.65;2.30;;;;;;;;;;5025302;28;20040;-89
2024/02/09 12:06:49;;;;;;;6.25;2.38;;;;;;;;;;5027368;28;20025;-91
2024/02/09 12:09:15;;;;;;;6.95;2.35;;;;;;;;;;5045248;28;20392;-92
2024/02/09 12:11:47;;;;;;;9.50;2.30;;;;;;;;;;5008966;28;20463;-92
2024/02/09 12:14:13;;;;;;;5.30;1.98;;;;;;;;;;5005254;28;20021;-91
2024/02/09 12:16:38;;;;;;;7.50;2.72;;;;;;;;;;5031993;28;20075;-90
2024/02/09 12:19:04;;;;;;;5.38;2.30;;;;;;;;;;5029100;28;20025;-92
2024/02/09 12:21:31;;;;;;;8.85;2.35;;;;;;;;;;5018759;28;20033;-90
2024/02/09 12:23:56;;;;;;;8.38;2.22;;;;;;;;;;5019722;28;20040;-90
2024/02/09 12:26:22;;;;;;;9.25;2.30;;;;;;;;;;5019498;28;20032;-91
2024/02/09 12:28:49;;;;;;;8.55;2.42;;;;;;;;;;5018936;28;20017;-90
2024/02/09 12:31:20;;;;;;;6.65;2.20;;;;;;;;;;5012370;28;20108;-90
2024/02/09 12:33:47;;;;;;;6.63;2.70;;;;;;;;;;5027372;28;20044;-91
2024/02/09 12:36:14;;;;;;;9.07;2.40;;;;;;;;;;5023990;28;20039;-90
2024/02/09 12:38:40;;;;;;;6.97;2.30;;;;;;;;;;5019742;28;20029;-90
2024/02/09 12:41:07;;;;;;;6.32;2.70;;;;;;;;;;5012391;28;20037;-89
2024/02/09 12:43:33;;;;;;;8.70;2.45;;;;;;;;;;5022301;28;20025;-91
2024/02/09 12:46:00;;;;;;;7.15;2.90;;;;;;;;;;5015524;28;20343;-89
2024/02/09 12:48:28;;;;;;;8.70;2.30;;;;;;;;;;5043930;28;20032;-90
2024/02/09 12:50:56;;;;;;;6.88;2.45;;;;;;;;;;5024181;28;20021;-92
2024/02/09 12:53:22;;;;;;;6.47;2.40;;;;;;;;;;5042599;28;20811;-91
2024/02/09 12:55:49;;;;;;;11.05;2.60;;;;;;;;;;5026590;28;20025;-92
2024/02/09 12:58:15;;;;;;;8.00;2.22;;;;;;;;;;5036595;28;20037;-90
2024/02/09 13:00:40;;;;;;;8.40;2.72;;;;;;;;;;5023762;28;20025;-90
2024/02/09 13:03:07;;;;;;;6.30;2.28;;;;;;;;;;5032202;28;20021;-90
2024/02/09 13:05:34;;;;;;;6.85;2.42;;;;;;;;;;5039130;28;20068;-90
2024/02/09 13:08:01;;;;;;;8.55;2.67;;;;;;;;;;5021626;28;20017;-91
2024/02/09 13:10:27;;;;;;;5.13;2.38;;;;;;;;;;5030547;28;20101;-91
2024/02/09 13:12:53;;;;;;;8.10;2.55;;;;;;;;;;5054250;28;20146;-92
2024/02/09 13:15:20;;;;;;;5.63;2.35;;;;;;;;;;5038158;28;20119;-91
2024/02/09 13:17:46;;;;;;;5.43;2.33;;;;;;;;;;5036160;28;20022;-91
2024/02/09 13:20:11;;;;;;;7.25;3.08;;;;;;;;;;5042603;28;20039;-90
2024/02/09 13:22:37;;;;;;;6.63;2.60;;;;;;;;;;5042536;28;20021;-91
2024/02/09 13:25:09;;;;;;;8.95;2.70;;;;;;;;;;5032041;28;20029;-92
2024/02/09 13:27:34;;;;;;;8.93;2.67;;;;;;;;;;5050758;28;20017;-89
2024/02/09 13:29:59;;;;;;;6.05;2.50;;;;;;;;;;5037983;28;20032;-90
2024/02/09 13:32:26;;;;;;;4.53;2.47;;;;;;;;;;5039404;28;20050;-91
2024/02/09 13:34:52;;;;;;;6.88;2.10;;;;;;;;;;5033819;28;20047;-91
2024/02/09 13:37:18;;;;;;;5.28;2.15;;;;;;;;;;5041077;28;21847;-91
2024/02/09 13:39:43;;;;;;;8.93;2.70;;;;;;;;;;5037595;28;20024;-91
2024/02/09 13:42:09;;;;;;;8.75;2.20;;;;;;;;;;5047140;28;20128;-90
2024/02/09 13:44:37;;;;;;;7.32;2.28;;;;;;;;;;5030575;28;20451;-90
2024/02/09 13:47:04;;;;;;;8.20;3.15;;;;;;;;;;5036260;28;20033;-91
2024/02/09 13:49:30;;;;;;;8.10;2.70;;;;;;;;;;5029910;28;20048;-91
2024/02/09 13:51:57;;;;;;;7.10;2.42;;;;;;;;;;5032115;28;20045;-90
2024/02/09 13:54:23;;;;;;;8.80;2.83;;;;;;;;;;5031018;28;20021;-89
2024/02/09 13:56:48;;;;;;;7.28;2.53;;;;;;;;;;5031375;28;20381;-90
2024/02/09 13:59:14;;;;;;;9.65;2.55;;;;;;;;;;5018836;28;20021;-83
2024/02/09 14:01:41;;;;;;;6.82;3.35;;;;;;;;;;5040189;28;20024;-83
2024/02/09 14:04:07;;;;;;;8.43;2.80;;;;;;;;;;5043522;28;20029;-83
2024/02/09 14:06:35;;;;;;;6.32;2.47;;;;;;;;;;5047344;28;20053;-83
2024/02/09 14:09:03;;;;;;;10.38;2.92;;;;;;;;;;5052459;28;20474;-83
2024/02/09 14:11:30;;;;;;;7.82;2.55;;;;;;;;;;5043164;28;20122;-84
2024/02/09 14:13:56;;;;;;;8.80;2.80;;;;;;;;;;5043040;28;20512;-82
2024/02/09 14:16:21;;;;;;;6.28;2.22;;;;;;;;;;5045167;28;20032;-84
2024/02/09 14:18:47;;;;;;;8.00;2.55;;;;;;;;;;5038821;28;20039;-84
2024/02/09 14:21:12;;;;;;;6.57;2.53;;;;;;;;;;5038559;28;20029;-84
2024/02/09 14:23:38;;;;;;;6.88;2.75;;;;;;;;;;5049183;28;20024;-84
2024/02/09 14:26:05;;;;;;;6.35;2.03;;;;;;;;;;5027062;28;20477;-84
2024/02/09 14:28:31;;;;;;;7.18;2.10;;;;;;;;;;5044651;28;20021;-84
2024/02/09 14:30:57;;;;;;;8.20;2.05;;;;;;;;;;5047733;28;20025;-83
2024/02/09 14:33:23;;;;;;;5.38;2.50;;;;;;;;;;5051667;28;20035;-84
2024/02/09 14:35:48;;;;;;;5.00;2.67;;;;;;;;;;5050860;28;20428;-84
2024/02/09 14:38:14;;;;;;;10.52;2.60;;;;;;;;;;5041808;28;20021;-84
2024/02/09 14:40:40;;;;;;;5.55;2.83;;;;;;;;;;5049438;28;20031;-84
2024/02/09 14:43:05;;;;;;;5.45;2.08;;;;;;;;;;5033044;28;20024;-84
2024/02/09 14:45:34;;;;;;;5.50;2.10;;;;;;;;;;5047008;28;20026;-84
2024/02/09 14:48:00;;;;;;;5.05;2.20;;;;;;;;;;5050029;28;20020;-84
2024/02/09 14:50:28;;;;;;;7.30;2.10;;;;;;;;;;5044931;28;20033;-84
2024/02/09 14:52:54;;;;;;;6.40;2.15;;;;;;;;;;5032908;28;20020;-83
2024/02/09 14:55:23;;;;;;;8.93;2.38;;;;;;;;;;5058609;28;20491;-84
2024/02/09 14:57:48;;;;;;;6.35;2.13;;;;;;;;;;5060203;28;20020;-84
2024/02/09 15:00:15;;;;;;;6.13;2.05;;;;;;;;;;5049710;28;20017;-84
2024/02/09 15:02:43;;;;;;;7.30;2.15;;;;;;;;;;5050567;28;20489;-83
2024/02/09 15:05:10;;;;;;;5.82;2.08;;;;;;;;;;5031886;28;20115;-84
2024/02/09 15:07:41;;;;;;;7.40;2.20;;;;;;;;;;5049577;28;20701;-84
2024/02/09 15:10:07;;;;;;;6.05;2.03;;;;;;;;;;5054983;28;20051;-84
2024/02/09 15:12:34;;;;;;;5.70;2.08;;;;;;;;;;5054125;28;20492;-84
2024/02/09 15:15:02;;;;;;;6.25;2.10;;;;;;;;;;5047122;28;20329;-84
2024/02/09 15:17:27;;;;;;;8.90;2.03;;;;;;;;;;5046299;28;20025;-83
2024/02/09 15:19:54;;;;;;;5.60;2.08;;;;;;;;;;5048326;28;20380;-84
2024/02/09 15:22:21;;;;;;;3.90;1.95;;;;;;;;;;5053939;28;20026;-84
2024/02/09 15:24:46;;;;;;;4.05;1.90;;;;;;;;;;5050482;28;20025;-84
2024/02/09 15:27:13;;;;;;;7.32;1.98;;;;;;;;;;5046392;28;20112;-84
2024/02/09 15:29:39;;;;;;;7.05;1.92;;;;;;;;;;5056924;28;20468;-84
2024/02/09 15:32:05;;;;;;;6.05;1.92;;;;;;;;;;5049447;28;20025;-84
2024/02/09 15:34:31;;;;;;;6.97;1.85;;;;;;;;;;5059605;28;20366;-84
2024/02/09 15:37:00;;;;;;;10.25;2.90;;;;;;;;;;5055057;28;20029;-84
2024/02/09 15:39:25;;;;;;;5.20;1.95;;;;;;;;;;5059592;28;20055;-84
2024/02/09 15:41:56;;;;;;;5.45;1.80;;;;;;;;;;5062819;28;20051;-84
2024/02/09 15:44:21;;;;;;;5.72;1.75;;;;;;;;;;5034382;28;20030;-84
2024/02/09 15:46:48;;;;;;;8.18;1.75;;;;;;;;;;5041352;28;20071;-84
2024/02/09 15:49:15;;;;;;;3.70;1.73;;;;;;;;;;5040135;28;20036;-84
2024/02/09 15:51:41;;;;;;;6.50;1.80;;;;;;;;;;5036427;28;20835;-84
2024/02/09 15:54:07;;;;;;;8.73;1.98;;;;;;;;;;5044574;28;20100;-84
2024/02/09 15:56:33;;;;;;;6.18;2.22;;;;;;;;;;5032284;28;20021;-83
2024/02/09 15:59:01;;;;;;;6.10;2.15;;;;;;;;;;5037646;28;20024;-84
2024/02/09 16:01:38;;;;;;;5.03;1.77;;;;;;;;;;5044967;28;20029;-84
2024/02/09 16:04:04;;;;;;;3.47;1.75;;;;;;;;;;5035187;28;20039;-85
2024/02/09 16:06:29;;;;;;;4.05;1.90;;;;;;;;;;5041183;28;20547;-86
2024/02/09 16:08:55;;;;;;;6.95;1.85;;;;;;;;;;5038377;28;20021;-85
2024/02/09 16:11:21;;;;;;;5.93;1.73;;;;;;;;;;5031273;28;20052;-85
2024/02/09 16:13:47;;;;;;;4.70;1.70;;;;;;;;;;5029946;28;20392;-87
2024/02/09 16:16:12;;;;;;;5.60;2.00;;;;;;;;;;5047627;28;20032;-87
2024/02/09 16:18:40;;;;;;;5.45;1.70;;;;;;;;;;5035345;28;20442;-87
2024/02/09 16:21:10;;;;;;;5.72;1.60;;;;;;;;;;5046992;28;20067;-86
2024/02/09 16:23:36;;;;;;;5.72;1.60;;;;;;;;;;5037978;28;20087;-86
2024/02/09 16:26:01;;;;;;;6.95;1.90;;;;;;;;;;5035808;28;20452;-86
2024/02/09 16:28:27;;;;;;;4.45;1.95;;;;;;;;;;5012263;28;20039;-87